sensor_id;sensor_type;location;lat;lon;timestamp;pressure;altitude;pressure_sealevel;temperature;humidity
8758;BME280;4415;42.152;24.744;2022-07-05T00:00:48;99629.13;;;22.45;nan
8758;BME280;4415;42.152;24.744;2022-07-05T00:03:13;99635.94;;;22.32;nan
8758;BME280;4415;42.152;24.744;2022-07-05T00:05:39;99617.97;;;22.38;nan
8758;BME280;4415;42.152;24.744;2022-07-05T00:08:05;99619.56;;;22.39;nan
8758;BME280;4415;42.152;24.744;2022-07-05T00:10:32;99613.44;;;22.49;nan
8758;BME280;4415;42.152;24.744;2022-07-05T00:12:57;99622.00;;;22.44;nan
8758;BME280;4415;42.152;24.744;2022-07-05T00:15:23;99629.31;;;22.56;nan
8758;BME280;4415;42.152;24.744;2022-07-05T00:17:48;99610.25;;;22.47;nan
8758;BME280;4415;42.152;24.744;2022-07-05T00:20:14;99640.53;;;22.66;nan
8758;BME280;4415;42.152;24.744;2022-07-05T00:22:39;99608.00;;;22.53;nan
8758;BME280;4415;42.152;24.744;2022-07-05T00:25:05;99617.69;;;22.66;nan
8758;BME280;4415;42.152;24.744;2022-07-05T00:27:31;99614.59;;;22.67;nan
8758;BME280;4415;42.152;24.744;2022-07-05T00:29:56;99621.59;;;22.65;nan
8758;BME280;4415;42.152;24.744;2022-07-05T00:32:21;99619.09;;;22.56;nan
8758;BME280;4415;42.152;24.744;2022-07-05T00:34:47;99623.22;;;22.66;nan
8758;BME280;4415;42.152;24.744;2022-07-05T00:37:12;99604.88;;;22.54;nan
8758;BME280;4415;42.152;24.744;2022-07-05T00:39:38;99591.41;;;22.49;nan
8758;BME280;4415;42.152;24.744;2022-07-05T00:42:03;99602.50;;;22.53;nan
8758;BME280;4415;42.152;24.744;2022-07-05T00:44:39;99599.25;;;22.47;nan
8758;BME280;4415;42.152;24.744;2022-07-05T00:47:08;99588.53;;;22.42;nan
8758;BME280;4415;42.152;24.744;2022-07-05T00:49:35;99589.50;;;22.30;nan
8758;BME280;4415;42.152;24.744;2022-07-05T00:52:02;99609.16;;;22.29;nan
8758;BME280;4415;42.152;24.744;2022-07-05T00:54:29;99587.97;;;22.33;nan
8758;BME280;4415;42.152;24.744;2022-07-05T00:56:57;99589.69;;;22.41;nan
8758;BME280;4415;42.152;24.744;2022-07-05T00:59:23;99582.47;;;22.33;nan
8758;BME280;4415;42.152;24.744;2022-07-05T01:01:48;99592.91;;;22.43;nan
8758;BME280;4415;42.152;24.744;2022-07-05T01:04:14;99579.38;;;22.34;nan
8758;BME280;4415;42.152;24.744;2022-07-05T01:06:43;99586.69;;;22.50;nan
8758;BME280;4415;42.152;24.744;2022-07-05T01:09:10;99565.22;;;22.36;nan
8758;BME280;4415;42.152;24.744;2022-07-05T01:11:38;99570.19;;;22.50;nan
8758;BME280;4415;42.152;24.744;2022-07-05T01:14:04;99587.63;;;22.57;nan
8758;BME280;4415;42.152;24.744;2022-07-05T01:16:33;99588.63;;;22.68;nan
8758;BME280;4415;42.152;24.744;2022-07-05T01:18:58;99572.09;;;22.68;nan
8758;BME280;4415;42.152;24.744;2022-07-05T01:21:25;99584.09;;;22.79;nan
8758;BME280;4415;42.152;24.744;2022-07-05T01:23:52;99574.50;;;22.70;nan
8758;BME280;4415;42.152;24.744;2022-07-05T01:26:18;99665.84;;;22.75;nan
8758;BME280;4415;42.152;24.744;2022-07-05T01:28:43;99575.41;;;22.77;nan
8758;BME280;4415;42.152;24.744;2022-07-05T01:31:08;99573.00;;;22.76;nan
8758;BME280;4415;42.152;24.744;2022-07-05T01:33:34;99563.53;;;22.73;nan
8758;BME280;4415;42.152;24.744;2022-07-05T01:35:59;99569.94;;;22.81;nan
8758;BME280;4415;42.152;24.744;2022-07-05T01:38:25;99539.91;;;22.72;nan
8758;BME280;4415;42.152;24.744;2022-07-05T01:40:50;99557.38;;;22.83;nan
8758;BME280;4415;42.152;24.744;2022-07-05T01:43:21;99554.47;;;22.50;nan
8758;BME280;4415;42.152;24.744;2022-07-05T01:45:47;99566.47;;;22.61;nan
8758;BME280;4415;42.152;24.744;2022-07-05T01:48:15;99547.50;;;22.56;nan
8758;BME280;4415;42.152;24.744;2022-07-05T01:53:11;99586.28;;;22.70;nan
8758;BME280;4415;42.152;24.744;2022-07-05T01:55:37;99557.78;;;22.59;nan
8758;BME280;4415;42.152;24.744;2022-07-05T01:58:02;99577.47;;;22.61;nan
8758;BME280;4415;42.152;24.744;2022-07-05T02:00:28;99646.63;;;22.56;nan
8758;BME280;4415;42.152;24.744;2022-07-05T02:02:54;99562.16;;;22.41;nan
8758;BME280;4415;42.152;24.744;2022-07-05T02:05:21;99563.03;;;22.45;nan
8758;BME280;4415;42.152;24.744;2022-07-05T02:07:49;99573.78;;;22.31;nan
8758;BME280;4415;42.152;24.744;2022-07-05T02:10:15;99614.38;;;22.15;nan
8758;BME280;4415;42.152;24.744;2022-07-05T02:12:41;99586.00;;;22.11;nan
8758;BME280;4415;42.152;24.744;2022-07-05T02:15:07;99589.78;;;22.03;nan
8758;BME280;4415;42.152;24.744;2022-07-05T02:17:33;99602.91;;;21.90;nan
8758;BME280;4415;42.152;24.744;2022-07-05T02:19:58;99590.84;;;21.79;nan
8758;BME280;4415;42.152;24.744;2022-07-05T02:22:24;99578.19;;;21.74;nan
8758;BME280;4415;42.152;24.744;2022-07-05T02:24:50;99596.34;;;21.79;nan
8758;BME280;4415;42.152;24.744;2022-07-05T02:27:15;99593.94;;;21.77;nan
8758;BME280;4415;42.152;24.744;2022-07-05T02:29:41;99576.44;;;21.66;nan
8758;BME280;4415;42.152;24.744;2022-07-05T02:32:06;99575.50;;;21.59;nan
8758;BME280;4415;42.152;24.744;2022-07-05T02:34:32;99597.28;;;21.67;nan
8758;BME280;4415;42.152;24.744;2022-07-05T02:36:57;99591.34;;;21.65;nan
8758;BME280;4415;42.152;24.744;2022-07-05T02:39:23;99584.03;;;21.54;nan
8758;BME280;4415;42.152;24.744;2022-07-05T02:41:48;99581.78;;;21.59;nan
8758;BME280;4415;42.152;24.744;2022-07-05T02:44:13;99603.28;;;21.73;nan
8758;BME280;4415;42.152;24.744;2022-07-05T02:46:39;99593.81;;;21.70;nan
8758;BME280;4415;42.152;24.744;2022-07-05T02:49:04;99572.94;;;21.50;nan
8758;BME280;4415;42.152;24.744;2022-07-05T02:51:30;99597.44;;;21.55;nan
8758;BME280;4415;42.152;24.744;2022-07-05T02:53:55;99584.75;;;21.51;nan
8758;BME280;4415;42.152;24.744;2022-07-05T02:56:21;99601.56;;;21.65;nan
8758;BME280;4415;42.152;24.744;2022-07-05T02:58:47;99599.59;;;21.46;nan
8758;BME280;4415;42.152;24.744;2022-07-05T03:01:13;99609.88;;;21.49;nan
8758;BME280;4415;42.152;24.744;2022-07-05T03:03:38;99610.56;;;21.46;nan
8758;BME280;4415;42.152;24.744;2022-07-05T03:06:04;99599.59;;;21.11;nan
8758;BME280;4415;42.152;24.744;2022-07-05T03:08:29;99597.59;;;21.28;nan
8758;BME280;4415;42.152;24.744;2022-07-05T03:10:55;99601.78;;;21.06;nan
8758;BME280;4415;42.152;24.744;2022-07-05T03:13:20;99593.78;;;21.32;nan
8758;BME280;4415;42.152;24.744;2022-07-05T03:15:45;99572.72;;;21.40;nan
8758;BME280;4415;42.152;24.744;2022-07-05T03:18:11;99617.81;;;21.54;nan
8758;BME280;4415;42.152;24.744;2022-07-05T03:20:36;99603.88;;;21.63;nan
8758;BME280;4415;42.152;24.744;2022-07-05T03:23:02;99596.69;;;21.58;nan
8758;BME280;4415;42.152;24.744;2022-07-05T03:25:27;99624.34;;;21.65;nan
8758;BME280;4415;42.152;24.744;2022-07-05T03:27:53;99599.31;;;21.70;nan
8758;BME280;4415;42.152;24.744;2022-07-05T03:30:18;99596.19;;;21.72;nan
8758;BME280;4415;42.152;24.744;2022-07-05T03:32:44;99613.03;;;21.86;nan
8758;BME280;4415;42.152;24.744;2022-07-05T03:35:09;99601.63;;;22.07;nan
8758;BME280;4415;42.152;24.744;2022-07-05T03:37:35;99591.81;;;21.87;nan
8758;BME280;4415;42.152;24.744;2022-07-05T03:40:01;99628.56;;;22.17;nan
8758;BME280;4415;42.152;24.744;2022-07-05T03:42:26;99585.63;;;22.77;nan
8758;BME280;4415;42.152;24.744;2022-07-05T03:44:51;99591.75;;;23.72;nan
8758;BME280;4415;42.152;24.744;2022-07-05T03:47:17;99626.50;;;24.43;nan
8758;BME280;4415;42.152;24.744;2022-07-05T03:52:07;99587.44;;;26.68;nan
8758;BME280;4415;42.152;24.744;2022-07-05T03:54:33;99602.53;;;26.95;nan
8758;BME280;4415;42.152;24.744;2022-07-05T03:56:59;99589.81;;;27.29;nan
8758;BME280;4415;42.152;24.744;2022-07-05T03:59:24;99599.97;;;27.85;nan
8758;BME280;4415;42.152;24.744;2022-07-05T04:01:49;99597.19;;;28.58;nan
8758;BME280;4415;42.152;24.744;2022-07-05T04:04:15;99606.59;;;28.78;nan
8758;BME280;4415;42.152;24.744;2022-07-05T04:06:40;99589.47;;;29.27;nan
8758;BME280;4415;42.152;24.744;2022-07-05T04:09:06;99608.16;;;29.64;nan
8758;BME280;4415;42.152;24.744;2022-07-05T04:11:31;99524.38;;;29.85;nan
8758;BME280;4415;42.152;24.744;2022-07-05T04:13:57;99577.66;;;29.87;nan
8758;BME280;4415;42.152;24.744;2022-07-05T04:16:22;99596.13;;;29.71;nan
8758;BME280;4415;42.152;24.744;2022-07-05T04:18:48;99577.94;;;30.77;nan
8758;BME280;4415;42.152;24.744;2022-07-05T04:21:13;99575.31;;;31.36;nan
8758;BME280;4415;42.152;24.744;2022-07-05T04:23:38;99586.13;;;32.48;nan
8758;BME280;4415;42.152;24.744;2022-07-05T04:26:04;99592.50;;;33.29;nan
8758;BME280;4415;42.152;24.744;2022-07-05T04:28:29;99585.72;;;33.43;nan
8758;BME280;4415;42.152;24.744;2022-07-05T04:30:56;99587.28;;;32.67;nan
8758;BME280;4415;42.152;24.744;2022-07-05T04:33:22;99570.47;;;32.51;nan
8758;BME280;4415;42.152;24.744;2022-07-05T04:35:47;99561.63;;;33.45;nan
8758;BME280;4415;42.152;24.744;2022-07-05T04:38:13;99566.78;;;33.63;nan
8758;BME280;4415;42.152;24.744;2022-07-05T04:40:38;99561.09;;;31.50;nan
8758;BME280;4415;42.152;24.744;2022-07-05T04:43:06;99581.34;;;32.65;nan
8758;BME280;4415;42.152;24.744;2022-07-05T04:45:32;99584.84;;;32.69;nan
8758;BME280;4415;42.152;24.744;2022-07-05T04:47:57;99681.09;;;31.96;nan
8758;BME280;4415;42.152;24.744;2022-07-05T04:50:23;99590.94;;;31.92;nan
8758;BME280;4415;42.152;24.744;2022-07-05T04:52:48;99581.50;;;31.47;nan
8758;BME280;4415;42.152;24.744;2022-07-05T04:55:14;99579.56;;;32.38;nan
8758;BME280;4415;42.152;24.744;2022-07-05T04:57:40;99594.56;;;33.13;nan
8758;BME280;4415;42.152;24.744;2022-07-05T05:00:11;99572.19;;;32.45;nan
8758;BME280;4415;42.152;24.744;2022-07-05T05:02:37;99569.53;;;32.89;nan
8758;BME280;4415;42.152;24.744;2022-07-05T05:05:03;99587.91;;;32.90;nan
8758;BME280;4415;42.152;24.744;2022-07-05T05:07:28;99578.66;;;33.67;nan
8758;BME280;4415;42.152;24.744;2022-07-05T05:09:54;99581.13;;;34.19;nan
8758;BME280;4415;42.152;24.744;2022-07-05T05:12:20;99577.44;;;35.19;nan
8758;BME280;4415;42.152;24.744;2022-07-05T05:14:45;99591.78;;;34.49;nan
8758;BME280;4415;42.152;24.744;2022-07-05T05:17:10;99601.69;;;34.54;nan
8758;BME280;4415;42.152;24.744;2022-07-05T05:19:36;99603.31;;;34.89;nan
8758;BME280;4415;42.152;24.744;2022-07-05T05:22:01;99599.66;;;35.82;nan
8758;BME280;4415;42.152;24.744;2022-07-05T05:24:27;99593.38;;;35.57;nan
8758;BME280;4415;42.152;24.744;2022-07-05T05:26:52;99608.81;;;35.74;nan
8758;BME280;4415;42.152;24.744;2022-07-05T05:29:18;99607.59;;;34.94;nan
8758;BME280;4415;42.152;24.744;2022-07-05T05:31:46;99602.03;;;36.06;nan
8758;BME280;4415;42.152;24.744;2022-07-05T05:34:11;99601.69;;;36.74;nan
8758;BME280;4415;42.152;24.744;2022-07-05T05:36:37;99607.97;;;36.78;nan
8758;BME280;4415;42.152;24.744;2022-07-05T05:39:02;99602.63;;;37.47;nan
8758;BME280;4415;42.152;24.744;2022-07-05T05:41:28;99617.94;;;38.01;nan
8758;BME280;4415;42.152;24.744;2022-07-05T05:43:53;99593.94;;;36.47;nan
8758;BME280;4415;42.152;24.744;2022-07-05T05:46:19;99612.31;;;34.97;nan
8758;BME280;4415;42.152;24.744;2022-07-05T05:48:44;99619.47;;;35.23;nan
8758;BME280;4415;42.152;24.744;2022-07-05T05:51:10;99624.63;;;35.80;nan
8758;BME280;4415;42.152;24.744;2022-07-05T05:53:35;99618.13;;;36.05;nan
8758;BME280;4415;42.152;24.744;2022-07-05T05:56:00;99617.50;;;37.57;nan
8758;BME280;4415;42.152;24.744;2022-07-05T05:58:26;99606.97;;;37.94;nan
8758;BME280;4415;42.152;24.744;2022-07-05T06:00:52;99594.13;;;38.44;nan
8758;BME280;4415;42.152;24.744;2022-07-05T06:03:20;99614.56;;;39.66;nan
8758;BME280;4415;42.152;24.744;2022-07-05T06:05:45;99621.03;;;39.81;nan
8758;BME280;4415;42.152;24.744;2022-07-05T06:08:11;99601.50;;;40.42;nan
8758;BME280;4415;42.152;24.744;2022-07-05T06:10:37;99588.50;;;40.85;nan
8758;BME280;4415;42.152;24.744;2022-07-05T06:13:06;99594.06;;;41.34;nan
8758;BME280;4415;42.152;24.744;2022-07-05T06:15:32;99591.56;;;39.73;nan
8758;BME280;4415;42.152;24.744;2022-07-05T06:17:58;99584.00;;;39.17;nan
8758;BME280;4415;42.152;24.744;2022-07-05T06:20:28;99576.34;;;40.00;nan
8758;BME280;4415;42.152;24.744;2022-07-05T06:22:55;99585.72;;;38.35;nan
8758;BME280;4415;42.152;24.744;2022-07-05T06:25:21;99580.81;;;39.77;nan
8758;BME280;4415;42.152;24.744;2022-07-05T06:27:52;99568.84;;;38.82;nan
8758;BME280;4415;42.152;24.744;2022-07-05T06:30:20;99557.78;;;39.99;nan
8758;BME280;4415;42.152;24.744;2022-07-05T06:32:47;99572.94;;;41.81;nan
8758;BME280;4415;42.152;24.744;2022-07-05T06:35:13;99570.75;;;42.64;nan
8758;BME280;4415;42.152;24.744;2022-07-05T06:37:58;99566.22;;;40.08;nan
8758;BME280;4415;42.152;24.744;2022-07-05T06:40:34;99576.13;;;42.20;nan
8758;BME280;4415;42.152;24.744;2022-07-05T06:43:03;99563.41;;;43.59;nan
8758;BME280;4415;42.152;24.744;2022-07-05T06:45:29;99564.75;;;43.75;nan
8758;BME280;4415;42.152;24.744;2022-07-05T06:47:58;99553.84;;;43.51;nan
8758;BME280;4415;42.152;24.744;2022-07-05T06:50:30;99554.50;;;45.01;nan
8758;BME280;4415;42.152;24.744;2022-07-05T06:52:55;99562.06;;;44.88;nan
8758;BME280;4415;42.152;24.744;2022-07-05T06:55:22;99543.03;;;45.94;nan
8758;BME280;4415;42.152;24.744;2022-07-05T06:57:47;99546.00;;;46.67;nan
8758;BME280;4415;42.152;24.744;2022-07-05T07:00:14;99545.59;;;45.22;nan
8758;BME280;4415;42.152;24.744;2022-07-05T07:02:40;99538.53;;;44.76;nan
8758;BME280;4415;42.152;24.744;2022-07-05T07:05:06;99547.50;;;45.49;nan
8758;BME280;4415;42.152;24.744;2022-07-05T07:07:32;99540.94;;;44.28;nan
8758;BME280;4415;42.152;24.744;2022-07-05T07:10:16;99539.31;;;44.77;nan
8758;BME280;4415;42.152;24.744;2022-07-05T07:12:42;99517.44;;;42.96;nan
8758;BME280;4415;42.152;24.744;2022-07-05T07:15:07;99527.50;;;41.55;nan
8758;BME280;4415;42.152;24.744;2022-07-05T07:17:33;99536.00;;;43.78;nan
8758;BME280;4415;42.152;24.744;2022-07-05T07:19:59;99536.56;;;43.82;nan
8758;BME280;4415;42.152;24.744;2022-07-05T07:22:24;99538.34;;;44.08;nan
8758;BME280;4415;42.152;24.744;2022-07-05T07:24:49;99531.47;;;43.11;nan
8758;BME280;4415;42.152;24.744;2022-07-05T07:27:15;99530.00;;;42.78;nan
8758;BME280;4415;42.152;24.744;2022-07-05T07:29:41;99543.84;;;42.17;nan
8758;BME280;4415;42.152;24.744;2022-07-05T07:32:07;99539.31;;;41.48;nan
8758;BME280;4415;42.152;24.744;2022-07-05T07:34:34;99544.91;;;41.94;nan
8758;BME280;4415;42.152;24.744;2022-07-05T07:37:01;99537.69;;;43.20;nan
8758;BME280;4415;42.152;24.744;2022-07-05T07:39:27;99542.19;;;44.60;nan
8758;BME280;4415;42.152;24.744;2022-07-05T07:41:53;99542.25;;;44.05;nan
8758;BME280;4415;42.152;24.744;2022-07-05T07:44:18;99537.06;;;43.92;nan
8758;BME280;4415;42.152;24.744;2022-07-05T07:46:44;99534.44;;;43.55;nan
8758;BME280;4415;42.152;24.744;2022-07-05T07:49:10;99536.03;;;43.89;nan
8758;BME280;4415;42.152;24.744;2022-07-05T07:51:36;99524.63;;;44.34;nan
8758;BME280;4415;42.152;24.744;2022-07-05T07:54:02;99540.25;;;42.59;nan
8758;BME280;4415;42.152;24.744;2022-07-05T07:56:28;99553.56;;;39.12;nan
8758;BME280;4415;42.152;24.744;2022-07-05T07:58:54;99535.25;;;40.54;nan
8758;BME280;4415;42.152;24.744;2022-07-05T08:01:19;99552.09;;;41.38;nan
8758;BME280;4415;42.152;24.744;2022-07-05T08:03:45;99543.34;;;40.26;nan
8758;BME280;4415;42.152;24.744;2022-07-05T08:06:11;99529.47;;;38.78;nan
8758;BME280;4415;42.152;24.744;2022-07-05T08:08:38;99547.25;;;39.17;nan
8758;BME280;4415;42.152;24.744;2022-07-05T08:11:05;99536.38;;;40.27;nan
8758;BME280;4415;42.152;24.744;2022-07-05T08:13:31;99550.53;;;40.77;nan
8758;BME280;4415;42.152;24.744;2022-07-05T08:15:56;99562.41;;;39.29;nan
8758;BME280;4415;42.152;24.744;2022-07-05T08:18:22;99550.19;;;37.50;nan
8758;BME280;4415;42.152;24.744;2022-07-05T08:21:06;99560.69;;;38.84;nan
8758;BME280;4415;42.152;24.744;2022-07-05T08:23:50;99540.22;;;39.95;nan
8758;BME280;4415;42.152;24.744;2022-07-05T08:26:15;99550.97;;;39.00;nan
8758;BME280;4415;42.152;24.744;2022-07-05T08:28:41;99543.16;;;39.86;nan
8758;BME280;4415;42.152;24.744;2022-07-05T08:31:06;99554.25;;;40.88;nan
8758;BME280;4415;42.152;24.744;2022-07-05T08:33:32;99532.69;;;41.11;nan
8758;BME280;4415;42.152;24.744;2022-07-05T08:35:57;99536.75;;;41.50;nan
8758;BME280;4415;42.152;24.744;2022-07-05T08:38:22;99530.94;;;39.51;nan
8758;BME280;4415;42.152;24.744;2022-07-05T08:40:50;99532.47;;;40.39;nan
8758;BME280;4415;42.152;24.744;2022-07-05T08:43:17;99528.69;;;40.83;nan
8758;BME280;4415;42.152;24.744;2022-07-05T08:45:44;99521.50;;;41.48;nan
8758;BME280;4415;42.152;24.744;2022-07-05T08:48:10;99538.47;;;39.83;nan
8758;BME280;4415;42.152;24.744;2022-07-05T08:50:39;99519.91;;;40.26;nan
8758;BME280;4415;42.152;24.744;2022-07-05T08:53:06;99519.38;;;39.78;nan
8758;BME280;4415;42.152;24.744;2022-07-05T08:55:35;99515.38;;;40.89;nan
8758;BME280;4415;42.152;24.744;2022-07-05T08:58:01;99501.38;;;40.80;nan
8758;BME280;4415;42.152;24.744;2022-07-05T09:00:26;99510.41;;;39.65;nan
8758;BME280;4415;42.152;24.744;2022-07-05T09:02:52;99504.72;;;39.35;nan
8758;BME280;4415;42.152;24.744;2022-07-05T09:05:19;99513.00;;;39.15;nan
8758;BME280;4415;42.152;24.744;2022-07-05T09:07:57;99513.50;;;39.67;nan
8758;BME280;4415;42.152;24.744;2022-07-05T09:10:26;99515.94;;;38.59;nan
8758;BME280;4415;42.152;24.744;2022-07-05T09:12:52;99512.13;;;38.38;nan
8758;BME280;4415;42.152;24.744;2022-07-05T09:15:17;99502.50;;;39.16;nan
8758;BME280;4415;42.152;24.744;2022-07-05T09:17:44;99495.19;;;38.38;nan
8758;BME280;4415;42.152;24.744;2022-07-05T09:20:13;99498.75;;;38.95;nan
8758;BME280;4415;42.152;24.744;2022-07-05T09:25:19;99482.47;;;39.43;nan
8758;BME280;4415;42.152;24.744;2022-07-05T09:27:54;99497.81;;;39.13;nan
8758;BME280;4415;42.152;24.744;2022-07-05T09:30:40;99500.13;;;38.19;nan
8758;BME280;4415;42.152;24.744;2022-07-05T09:33:15;99498.22;;;38.58;nan
8758;BME280;4415;42.152;24.744;2022-07-05T09:35:42;99485.22;;;39.67;nan
8758;BME280;4415;42.152;24.744;2022-07-05T09:38:19;99502.09;;;39.08;nan
8758;BME280;4415;42.152;24.744;2022-07-05T09:40:48;99484.69;;;38.86;nan
8758;BME280;4415;42.152;24.744;2022-07-05T09:43:19;99489.69;;;39.29;nan
8758;BME280;4415;42.152;24.744;2022-07-05T09:46:00;99474.19;;;38.63;nan
8758;BME280;4415;42.152;24.744;2022-07-05T09:48:27;99474.88;;;39.64;nan
8758;BME280;4415;42.152;24.744;2022-07-05T09:51:12;99467.47;;;38.28;nan
8758;BME280;4415;42.152;24.744;2022-07-05T09:53:49;99475.97;;;37.86;nan
8758;BME280;4415;42.152;24.744;2022-07-05T09:56:15;99472.84;;;37.84;nan
8758;BME280;4415;42.152;24.744;2022-07-05T09:58:41;99476.69;;;38.04;nan
8758;BME280;4415;42.152;24.744;2022-07-05T10:01:29;99467.28;;;38.07;nan
8758;BME280;4415;42.152;24.744;2022-07-05T10:04:00;99449.16;;;38.23;nan
8758;BME280;4415;42.152;24.744;2022-07-05T10:06:27;99464.72;;;36.98;nan
8758;BME280;4415;42.152;24.744;2022-07-05T10:08:53;99455.28;;;37.20;nan
8758;BME280;4415;42.152;24.744;2022-07-05T10:11:20;99453.50;;;38.33;nan
8758;BME280;4415;42.152;24.744;2022-07-05T10:13:53;99448.47;;;38.99;nan
8758;BME280;4415;42.152;24.744;2022-07-05T10:16:21;99446.50;;;38.76;nan
8758;BME280;4415;42.152;24.744;2022-07-05T10:18:50;99450.72;;;37.40;nan
8758;BME280;4415;42.152;24.744;2022-07-05T10:21:17;99447.69;;;38.04;nan
8758;BME280;4415;42.152;24.744;2022-07-05T10:23:48;99446.97;;;37.52;nan
8758;BME280;4415;42.152;24.744;2022-07-05T10:26:16;99456.81;;;37.48;nan
8758;BME280;4415;42.152;24.744;2022-07-05T10:28:46;99454.06;;;37.02;nan
8758;BME280;4415;42.152;24.744;2022-07-05T10:31:13;99437.13;;;36.84;nan
8758;BME280;4415;42.152;24.744;2022-07-05T10:33:40;99446.25;;;37.67;nan
8758;BME280;4415;42.152;24.744;2022-07-05T10:36:07;99440.81;;;37.63;nan
8758;BME280;4415;42.152;24.744;2022-07-05T10:38:46;99421.47;;;38.12;nan
8758;BME280;4415;42.152;24.744;2022-07-05T10:41:22;99420.16;;;38.22;nan
8758;BME280;4415;42.152;24.744;2022-07-05T10:43:55;99436.13;;;37.60;nan
8758;BME280;4415;42.152;24.744;2022-07-05T10:46:38;99425.84;;;37.90;nan
8758;BME280;4415;42.152;24.744;2022-07-05T10:49:13;99432.25;;;37.39;nan
8758;BME280;4415;42.152;24.744;2022-07-05T10:51:39;99437.91;;;36.49;nan
8758;BME280;4415;42.152;24.744;2022-07-05T10:54:05;99432.41;;;36.45;nan
8758;BME280;4415;42.152;24.744;2022-07-05T10:56:30;99431.47;;;36.48;nan
8758;BME280;4415;42.152;24.744;2022-07-05T10:59:09;99426.34;;;36.92;nan
8758;BME280;4415;42.152;24.744;2022-07-05T11:01:38;99412.44;;;36.79;nan
8758;BME280;4415;42.152;24.744;2022-07-05T11:11:48;99410.50;;;36.31;nan
8758;BME280;4415;42.152;24.744;2022-07-05T11:20:14;99398.00;;;35.83;nan
8758;BME280;4415;42.152;24.744;2022-07-05T11:25:28;99414.44;;;36.52;nan
8758;BME280;4415;42.152;24.744;2022-07-05T11:28:06;99392.34;;;36.14;nan
8758;BME280;4415;42.152;24.744;2022-07-05T11:31:04;99394.38;;;35.12;nan
8758;BME280;4415;42.152;24.744;2022-07-05T11:33:48;99364.13;;;35.47;nan
8758;BME280;4415;42.152;24.744;2022-07-05T11:36:23;99378.63;;;35.76;nan
8758;BME280;4415;42.152;24.744;2022-07-05T11:39:14;99369.41;;;35.14;nan
8758;BME280;4415;42.152;24.744;2022-07-05T11:41:43;99381.16;;;35.00;nan
8758;BME280;4415;42.152;24.744;2022-07-05T11:44:11;99362.88;;;34.73;nan
8758;BME280;4415;42.152;24.744;2022-07-05T11:46:37;99365.22;;;34.97;nan
8758;BME280;4415;42.152;24.744;2022-07-05T11:49:03;99359.47;;;35.22;nan
8758;BME280;4415;42.152;24.744;2022-07-05T11:51:28;99355.72;;;35.56;nan
8758;BME280;4415;42.152;24.744;2022-07-05T11:53:54;99369.25;;;34.96;nan
8758;BME280;4415;42.152;24.744;2022-07-05T11:56:20;99357.56;;;35.50;nan
8758;BME280;4415;42.152;24.744;2022-07-05T11:58:45;99366.88;;;35.38;nan
8758;BME280;4415;42.152;24.744;2022-07-05T12:01:11;99350.44;;;34.40;nan
8758;BME280;4415;42.152;24.744;2022-07-05T12:03:36;99340.81;;;34.63;nan
8758;BME280;4415;42.152;24.744;2022-07-05T12:06:13;99365.19;;;34.53;nan
8758;BME280;4415;42.152;24.744;2022-07-05T12:08:41;99366.75;;;34.54;nan
8758;BME280;4415;42.152;24.744;2022-07-05T12:11:10;99359.84;;;34.46;nan
8758;BME280;4415;42.152;24.744;2022-07-05T12:13:54;99366.53;;;34.61;nan
8758;BME280;4415;42.152;24.744;2022-07-05T12:16:19;99348.91;;;34.83;nan
8758;BME280;4415;42.152;24.744;2022-07-05T12:18:55;99310.09;;;34.59;nan
8758;BME280;4415;42.152;24.744;2022-07-05T12:21:24;99358.16;;;34.70;nan
8758;BME280;4415;42.152;24.744;2022-07-05T12:23:50;99342.63;;;34.79;nan
8758;BME280;4415;42.152;24.744;2022-07-05T12:26:17;99353.09;;;35.00;nan
8758;BME280;4415;42.152;24.744;2022-07-05T12:28:43;99340.16;;;34.81;nan
8758;BME280;4415;42.152;24.744;2022-07-05T12:31:24;99343.81;;;34.68;nan
8758;BME280;4415;42.152;24.744;2022-07-05T12:33:51;99349.00;;;34.36;nan
8758;BME280;4415;42.152;24.744;2022-07-05T12:36:19;99329.94;;;34.52;nan
8758;BME280;4415;42.152;24.744;2022-07-05T12:38:45;99332.84;;;34.61;nan
8758;BME280;4415;42.152;24.744;2022-07-05T12:41:11;99345.38;;;34.69;nan
8758;BME280;4415;42.152;24.744;2022-07-05T12:43:51;99344.69;;;34.44;nan
8758;BME280;4415;42.152;24.744;2022-07-05T12:46:17;99342.72;;;33.85;nan
8758;BME280;4415;42.152;24.744;2022-07-05T12:48:43;99337.81;;;33.64;nan
8758;BME280;4415;42.152;24.744;2022-07-05T12:51:09;99334.28;;;33.72;nan
8758;BME280;4415;42.152;24.744;2022-07-05T12:53:47;99326.75;;;34.07;nan
8758;BME280;4415;42.152;24.744;2022-07-05T12:56:31;99319.84;;;33.74;nan
8758;BME280;4415;42.152;24.744;2022-07-05T12:59:16;99323.13;;;34.19;nan
8758;BME280;4415;42.152;24.744;2022-07-05T13:01:43;99323.78;;;34.23;nan
8758;BME280;4415;42.152;24.744;2022-07-05T13:09:05;99317.38;;;33.76;nan
8758;BME280;4415;42.152;24.744;2022-07-05T13:11:31;99316.91;;;33.90;nan
8758;BME280;4415;42.152;24.744;2022-07-05T13:13:57;99307.13;;;33.94;nan
8758;BME280;4415;42.152;24.744;2022-07-05T13:16:22;99309.25;;;34.03;nan
8758;BME280;4415;42.152;24.744;2022-07-05T13:18:48;99298.03;;;34.03;nan
8758;BME280;4415;42.152;24.744;2022-07-05T13:21:13;99294.47;;;33.90;nan
8758;BME280;4415;42.152;24.744;2022-07-05T13:23:39;99297.59;;;33.92;nan
8758;BME280;4415;42.152;24.744;2022-07-05T13:26:05;99304.13;;;33.89;nan
8758;BME280;4415;42.152;24.744;2022-07-05T13:28:31;99300.94;;;33.99;nan
8758;BME280;4415;42.152;24.744;2022-07-05T13:30:57;99301.25;;;33.80;nan
8758;BME280;4415;42.152;24.744;2022-07-05T13:33:22;99290.31;;;33.94;nan
8758;BME280;4415;42.152;24.744;2022-07-05T13:35:48;99280.38;;;33.81;nan
8758;BME280;4415;42.152;24.744;2022-07-05T13:38:13;99286.66;;;33.85;nan
8758;BME280;4415;42.152;24.744;2022-07-05T13:40:38;99317.91;;;33.83;nan
8758;BME280;4415;42.152;24.744;2022-07-05T13:43:05;99269.41;;;33.74;nan
8758;BME280;4415;42.152;24.744;2022-07-05T13:45:30;99277.72;;;33.65;nan
8758;BME280;4415;42.152;24.744;2022-07-05T13:47:56;99255.53;;;33.32;nan
8758;BME280;4415;42.152;24.744;2022-07-05T13:50:21;99290.50;;;33.15;nan
8758;BME280;4415;42.152;24.744;2022-07-05T13:52:56;99266.31;;;33.21;nan
8758;BME280;4415;42.152;24.744;2022-07-05T13:55:21;99263.72;;;33.27;nan
8758;BME280;4415;42.152;24.744;2022-07-05T13:57:47;99263.06;;;33.48;nan
8758;BME280;4415;42.152;24.744;2022-07-05T14:00:13;99255.75;;;33.50;nan
8758;BME280;4415;42.152;24.744;2022-07-05T14:02:38;99253.41;;;33.49;nan